createdAt,value
2022-09-12T00:01:09.916Z,100.00
2022-09-12T00:02:13.355Z,100.00
2022-09-12T00:03:19.183Z,100.00
2022-09-12T00:04:22.553Z,100.00
2022-09-12T00:05:28.459Z,100.00
2022-09-12T00:06:34.405Z,100.00
2022-09-12T00:07:38.982Z,100.00
2022-09-12T00:08:42.530Z,100.00
2022-09-12T00:09:46.982Z,100.00
2022-09-12T00:10:52.876Z,100.00
2022-09-12T00:11:56.912Z,100.00
2022-09-12T00:13:00.132Z,100.00
2022-09-12T00:14:04.840Z,100.00
2022-09-12T00:15:11.004Z,100.00
2022-09-12T00:16:19.722Z,100.00
2022-09-12T00:17:33.071Z,100.00
2022-09-12T00:18:38.372Z,100.00
2022-09-12T00:19:42.875Z,100.00
2022-09-12T00:20:47.510Z,100.00
2022-09-12T00:21:52.280Z,100.00
2022-09-12T00:22:55.606Z,100.00
2022-09-12T00:24:00.418Z,100.00
2022-09-12T00:25:04.317Z,100.00
2022-09-12T00:26:09.780Z,100.00
2022-09-12T00:27:12.983Z,100.00
2022-09-12T00:28:18.363Z,100.00
2022-09-12T00:29:24.158Z,100.00
2022-09-12T00:30:27.737Z,100.00
2022-09-12T00:31:32.493Z,100.00
2022-09-12T00:32:35.844Z,100.00
2022-09-12T00:33:42.038Z,100.00
2022-09-12T00:34:45.727Z,100.00
2022-09-12T00:35:53.271Z,100.00
2022-09-12T00:36:56.932Z,100.00
2022-09-12T00:38:01.553Z,100.00
2022-09-12T00:39:05.131Z,100.00
2022-09-12T00:40:10.179Z,100.00
2022-09-12T00:41:17.734Z,100.00
2022-09-12T00:42:22.339Z,100.00
2022-09-12T00:43:37.831Z,100.00
2022-09-12T00:44:59.604Z,100.00
2022-09-12T00:46:07.540Z,100.00
2022-09-12T00:47:18.251Z,100.00
2022-09-12T00:48:26.453Z,100.00
2022-09-12T00:49:35.601Z,100.00
2022-09-12T00:50:38.975Z,100.00
2022-09-12T00:51:46.094Z,100.00
2022-09-12T00:52:52.175Z,100.00
2022-09-12T00:53:57.492Z,100.00
2022-09-12T00:55:04.302Z,100.00
2022-09-12T00:56:10.609Z,100.00
2022-09-12T00:57:15.391Z,100.00
2022-09-12T00:58:23.454Z,100.00
2022-09-12T00:59:29.612Z,100.00
2022-09-12T01:00:34.270Z,100.00
2022-09-12T01:01:37.915Z,100.00
2022-09-12T01:02:43.063Z,100.00
2022-09-12T01:03:46.567Z,100.00
2022-09-12T01:04:52.480Z,100.00
2022-09-12T01:06:02.514Z,100.00
2022-09-12T01:07:07.291Z,100.00
2022-09-12T01:08:11.155Z,100.00
2022-09-12T01:09:19.973Z,100.00
2022-09-12T01:10:24.860Z,100.00
2022-09-12T01:11:29.879Z,100.00
2022-09-12T01:12:35.239Z,100.00
2022-09-12T01:13:39.813Z,100.00
2022-09-12T01:14:43.395Z,100.00
2022-09-12T01:15:47.840Z,100.00
2022-09-12T01:16:53.971Z,100.00
2022-09-12T01:18:09.472Z,100.00
2022-09-12T01:19:26.655Z,100.00
2022-09-12T01:21:00.415Z,100.00
2022-09-12T01:22:16.271Z,100.00
2022-09-12T01:23:52.751Z,100.00
2022-09-12T01:25:06.264Z,100.00
2022-09-12T01:26:23.082Z,100.00
2022-09-12T01:27:43.851Z,100.00
2022-09-12T01:28:58.891Z,100.00
2022-09-12T01:30:30.351Z,100.00
2022-09-12T01:31:37.331Z,100.00
2022-09-12T01:32:53.252Z,100.00
2022-09-12T01:34:03.644Z,100.00
2022-09-12T01:35:17.003Z,100.00
2022-09-12T01:36:38.465Z,100.00
2022-09-12T01:37:47.218Z,100.00
2022-09-12T01:38:56.323Z,100.00
2022-09-12T01:40:04.311Z,100.00
2022-09-12T01:41:15.433Z,100.00
2022-09-12T01:42:25.788Z,100.00
2022-09-12T01:43:34.965Z,100.00
2022-09-12T01:44:44.737Z,100.00
2022-09-12T01:45:55.781Z,100.00
2022-09-12T01:47:05.784Z,100.00
2022-09-12T01:48:14.218Z,100.00
2022-09-12T01:49:22.004Z,100.00
2022-09-12T01:50:28.712Z,100.00
2022-09-12T01:51:36.777Z,100.00
2022-09-12T01:52:45.470Z,100.00
2022-09-12T01:53:53.047Z,100.00
2022-09-12T01:55:07.662Z,100.00
2022-09-12T01:56:17.280Z,100.00
2022-09-12T01:57:25.309Z,100.00
2022-09-12T01:58:34.890Z,100.00
2022-09-12T01:59:41.981Z,100.00
2022-09-12T02:00:57.219Z,100.00
2022-09-12T02:02:05.331Z,100.00
2022-09-12T02:03:12.743Z,100.00
2022-09-12T02:04:19.310Z,100.00
2022-09-12T02:05:29.760Z,100.00
2022-09-12T02:06:36.075Z,100.00
2022-09-12T02:07:42.340Z,100.00
2022-09-12T02:08:52.111Z,100.00
2022-09-12T02:09:59.957Z,100.00
2022-09-12T02:11:07.491Z,100.00
2022-09-12T02:12:17.822Z,100.00
2022-09-12T02:13:24.395Z,100.00
2022-09-12T02:14:30.972Z,100.00
2022-09-12T02:16:02.595Z,100.00
2022-09-12T02:17:31.754Z,100.00
2022-09-12T02:18:35.330Z,100.00
2022-09-12T02:19:43.917Z,100.00
2022-09-12T02:20:49.781Z,100.00
2022-09-12T02:21:57.449Z,100.00
2022-09-12T02:23:01.603Z,100.00
2022-09-12T02:24:33.860Z,100.00
2022-09-12T02:25:39.231Z,100.00
2022-09-12T02:26:46.867Z,100.00
2022-09-12T02:27:52.851Z,100.00
2022-09-12T02:28:57.783Z,100.00
2022-09-12T02:30:01.320Z,100.00
2022-09-12T02:31:14.980Z,100.00
2022-09-12T02:32:26.652Z,100.00
2022-09-12T02:33:40.288Z,100.00
2022-09-12T02:34:49.844Z,100.00
2022-09-12T02:35:59.894Z,100.00
2022-09-12T02:37:08.447Z,100.00
2022-09-12T02:38:16.791Z,100.00
2022-09-12T02:41:45.782Z,100.00
2022-09-12T02:42:49.092Z,100.00
2022-09-12T02:43:53.845Z,100.00
2022-09-12T02:44:57.901Z,100.00
2022-09-12T02:46:02.597Z,100.00
2022-09-12T02:47:10.792Z,100.00
2022-09-12T02:48:17.022Z,100.00
2022-09-12T02:49:20.784Z,100.00
2022-09-12T02:50:26.357Z,100.00
2022-09-12T02:51:29.743Z,100.00
2022-09-12T02:52:34.372Z,100.00
2022-09-12T02:53:38.123Z,100.00
2022-09-12T02:54:48.970Z,100.00
2022-09-12T02:55:53.646Z,100.00
2022-09-12T02:56:57.191Z,100.00
2022-09-12T02:58:02.592Z,100.00
2022-09-12T02:59:09.202Z,100.00
2022-09-12T03:00:13.870Z,100.00
2022-09-12T03:01:27.648Z,100.00
2022-09-12T03:02:45.371Z,100.00
2022-09-12T03:04:01.340Z,100.00
2022-09-12T03:05:17.392Z,100.00
2022-09-12T03:06:28.890Z,100.00
2022-09-12T03:07:51.355Z,100.00
2022-09-12T03:09:02.012Z,100.00
2022-09-12T03:10:10.810Z,100.00
2022-09-12T03:11:39.388Z,100.00
2022-09-12T03:12:48.637Z,100.00
2022-09-12T03:14:02.694Z,100.00
2022-09-12T03:15:21.081Z,100.00
2022-09-12T03:16:29.815Z,100.00
2022-09-12T03:17:44.685Z,100.00
2022-09-12T03:18:54.775Z,100.00
2022-09-12T03:20:01.272Z,100.00
2022-09-12T03:21:10.538Z,100.00
2022-09-12T03:22:17.466Z,100.00
2022-09-12T03:23:27.822Z,100.00
2022-09-12T03:24:34.533Z,100.00
2022-09-12T03:25:43.370Z,100.00
2022-09-12T03:26:48.789Z,100.00
2022-09-12T03:27:57.450Z,100.00
2022-09-12T03:29:02.790Z,100.00
2022-09-12T03:30:08.409Z,100.00
2022-09-12T03:31:14.974Z,100.00
2022-09-12T03:32:19.632Z,100.00
2022-09-12T03:33:25.781Z,100.00
2022-09-12T03:34:30.739Z,100.00
2022-09-12T03:35:34.147Z,100.00
2022-09-12T03:36:39.992Z,100.00
2022-09-12T03:37:43.640Z,100.00
2022-09-12T03:39:03.186Z,100.00
2022-09-12T03:40:08.686Z,100.00
2022-09-12T03:41:13.233Z,100.00
2022-09-12T03:42:16.970Z,100.00
2022-09-12T03:43:22.162Z,100.00
2022-09-12T03:44:26.326Z,100.00
2022-09-12T03:45:32.176Z,100.00
2022-09-12T03:46:35.642Z,100.00
2022-09-12T03:47:40.074Z,100.00
2022-09-12T03:48:45.966Z,100.00
2022-09-12T03:49:49.214Z,100.00
2022-09-12T03:50:53.414Z,100.00
2022-09-12T03:51:56.533Z,100.00
2022-09-12T03:53:01.102Z,100.00
2022-09-12T03:54:04.360Z,100.00
2022-09-12T03:55:09.153Z,100.00
2022-09-12T03:56:12.852Z,100.00
2022-09-12T03:57:17.191Z,100.00
2022-09-12T03:58:20.171Z,100.00
2022-09-12T03:59:24.432Z,100.00
2022-09-12T04:00:27.861Z,100.00
2022-09-12T04:01:32.200Z,100.00
2022-09-12T04:02:35.398Z,100.00
2022-09-12T04:03:40.381Z,100.00
2022-09-12T04:04:45.194Z,100.00
2022-09-12T04:05:49.239Z,100.00
2022-09-12T04:06:52.403Z,100.00
2022-09-12T04:07:56.590Z,100.00
2022-09-12T04:08:59.743Z,100.00
2022-09-12T04:10:04.105Z,100.00
2022-09-12T04:11:08.986Z,100.00
2022-09-12T04:12:14.268Z,100.00
2022-09-12T04:13:17.432Z,100.00
2022-09-12T04:14:21.695Z,100.00
2022-09-12T04:15:24.829Z,100.00
2022-09-12T04:16:29.059Z,100.00
2022-09-12T04:17:32.193Z,100.00
2022-09-12T04:18:36.826Z,100.00
2022-09-12T04:19:39.872Z,100.00
2022-09-12T04:20:46.293Z,100.00
2022-09-12T04:21:49.285Z,100.00
2022-09-12T04:22:53.375Z,100.00
2022-09-12T04:23:56.525Z,100.00
2022-09-12T04:25:00.642Z,100.00
2022-09-12T04:26:06.685Z,100.00
2022-09-12T04:27:10.778Z,100.00
2022-09-12T04:28:13.718Z,100.00
2022-09-12T04:29:17.914Z,100.00
2022-09-12T04:30:21.034Z,100.00
2022-09-12T04:31:26.095Z,100.00
2022-09-12T04:32:30.284Z,100.00
2022-09-12T04:33:34.611Z,100.00
2022-09-12T04:34:37.826Z,100.00
2022-09-12T04:35:43.114Z,100.00
2022-09-12T04:36:47.531Z,100.00
2022-09-12T04:37:51.553Z,100.00
2022-09-12T04:38:54.651Z,100.00
2022-09-12T04:39:59.532Z,100.00
2022-09-12T04:41:11.223Z,100.00
2022-09-12T04:42:15.452Z,100.00
2022-09-12T04:43:18.395Z,100.00
2022-09-12T04:44:22.377Z,100.00
2022-09-12T04:45:25.593Z,100.00
2022-09-12T04:46:30.395Z,100.00
2022-09-12T04:47:33.421Z,100.00
2022-09-12T04:48:37.971Z,100.00
2022-09-12T04:49:42.052Z,100.00
2022-09-12T04:50:45.202Z,100.00
2022-09-12T04:51:50.832Z,100.00
2022-09-12T04:52:54.399Z,100.00
2022-09-12T04:53:59.666Z,100.00
2022-09-12T04:55:02.670Z,100.00
2022-09-12T04:56:08.272Z,100.00
2022-09-12T04:57:11.442Z,100.00
2022-09-12T04:58:15.634Z,100.00
2022-09-12T04:59:21.234Z,100.00
2022-09-12T05:00:24.837Z,100.00
2022-09-12T05:01:30.535Z,100.00
2022-09-12T05:02:34.139Z,100.00
2022-09-12T05:03:39.265Z,100.00
2022-09-12T05:04:42.481Z,100.00
2022-09-12T05:05:46.605Z,100.00
2022-09-12T05:06:52.098Z,100.00
2022-09-12T05:07:55.068Z,100.00
2022-09-12T05:08:59.935Z,100.00
2022-09-12T05:10:04.895Z,100.00
2022-09-12T05:11:09.052Z,100.00
2022-09-12T05:12:14.455Z,100.00
2022-09-12T05:13:17.639Z,100.00
2022-09-12T05:14:21.840Z,100.00
2022-09-12T05:15:25.397Z,100.00
2022-09-12T05:16:31.496Z,100.00
2022-09-12T05:17:34.471Z,100.00
2022-09-12T05:18:38.905Z,100.00
2022-09-12T05:19:42.187Z,100.00
2022-09-12T05:20:46.456Z,100.00
2022-09-12T05:21:51.892Z,100.00
2022-09-12T05:22:56.071Z,100.00
2022-09-12T05:24:01.040Z,100.00
2022-09-12T05:25:05.997Z,100.00
2022-09-12T05:26:13.791Z,100.00
2022-09-12T05:27:16.863Z,100.00
2022-09-12T05:28:21.309Z,100.00
2022-09-12T05:29:26.270Z,100.00
2022-09-12T05:30:29.287Z,100.00
2022-09-12T05:31:33.518Z,100.00
2022-09-12T05:32:36.719Z,100.00
2022-09-12T05:33:42.464Z,100.00
2022-09-12T05:34:45.585Z,100.00
2022-09-12T05:35:53.235Z,100.00
2022-09-12T05:36:58.942Z,100.00
2022-09-12T05:38:01.974Z,100.00
2022-09-12T05:39:06.419Z,100.00
2022-09-12T05:40:10.391Z,100.00
2022-09-12T05:41:19.011Z,100.00
2022-09-12T05:42:25.052Z,100.00
2022-09-12T05:43:28.260Z,100.00
2022-09-12T05:44:33.491Z,100.00
2022-09-12T05:45:36.584Z,100.00
2022-09-12T05:46:42.230Z,100.00
2022-09-12T05:47:47.423Z,100.00
2022-09-12T05:48:55.852Z,100.00
2022-09-12T05:49:59.993Z,100.00
2022-09-12T05:51:04.902Z,100.00
2022-09-12T05:52:09.280Z,100.00
2022-09-12T05:53:13.289Z,100.00
2022-09-12T05:54:18.010Z,100.00
2022-09-12T05:55:23.214Z,100.00
2022-09-12T05:56:27.791Z,100.00
2022-09-12T05:57:32.152Z,100.00
2022-09-12T05:58:36.104Z,100.00
2022-09-12T05:59:40.270Z,100.00
2022-09-12T06:00:43.360Z,100.00
2022-09-12T06:01:47.563Z,100.00
2022-09-12T06:02:53.441Z,100.00
2022-09-12T06:04:00.966Z,100.00
2022-09-12T06:05:04.313Z,100.00
2022-09-12T06:06:09.164Z,100.00
2022-09-12T06:07:15.047Z,100.00
2022-09-12T06:08:18.526Z,100.00
2022-09-12T06:09:22.963Z,100.00
2022-09-12T06:10:26.565Z,100.00
2022-09-12T06:11:31.966Z,100.00
2022-09-12T06:12:34.981Z,100.00
2022-09-12T06:13:40.396Z,100.00
2022-09-12T06:14:44.892Z,100.00
2022-09-12T06:15:47.835Z,100.00
2022-09-12T06:16:51.942Z,100.00
2022-09-12T06:17:55.004Z,100.00
2022-09-12T06:19:00.918Z,100.00
2022-09-12T06:20:04.513Z,100.00
2022-09-12T06:21:09.600Z,100.00
2022-09-12T06:22:15.763Z,100.00
2022-09-12T06:23:18.666Z,100.00
2022-09-12T06:24:23.280Z,100.00
2022-09-12T06:25:26.718Z,100.00
2022-09-12T06:26:30.944Z,100.00
2022-09-12T06:27:33.843Z,100.00
2022-09-12T06:28:39.308Z,100.00
2022-09-12T06:29:42.735Z,100.00
2022-09-12T06:30:46.829Z,100.00
2022-09-12T06:31:50.860Z,100.00
2022-09-12T06:32:53.939Z,100.00
2022-09-12T06:33:58.952Z,100.00
2022-09-12T06:35:04.039Z,100.00
2022-09-12T06:36:12.398Z,100.00
2022-09-12T06:37:18.216Z,100.00
2022-09-12T06:38:21.312Z,100.00
2022-09-12T06:39:25.331Z,100.00
2022-09-12T06:40:30.018Z,100.00
2022-09-12T06:41:34.224Z,100.00
2022-09-12T06:42:37.128Z,100.00
2022-09-12T06:43:42.087Z,100.00
2022-09-12T06:44:46.243Z,100.00
2022-09-12T06:45:50.175Z,100.00
2022-09-12T06:46:54.796Z,100.00
2022-09-12T06:47:57.915Z,100.00
2022-09-12T06:49:02.454Z,100.00
2022-09-12T06:50:06.506Z,100.00
2022-09-12T06:51:13.534Z,100.00
2022-09-12T06:52:19.390Z,100.00
2022-09-12T06:53:22.368Z,100.00
2022-09-12T06:54:26.735Z,100.00
2022-09-12T06:55:30.204Z,100.00
2022-09-12T06:56:34.361Z,100.00
2022-09-12T06:57:39.173Z,100.00
2022-09-12T06:58:44.170Z,100.00
2022-09-12T06:59:47.165Z,100.00
2022-09-12T07:00:52.037Z,100.00
2022-09-12T07:01:58.289Z,100.00
2022-09-12T07:03:01.536Z,100.00
2022-09-12T07:04:06.093Z,100.00
2022-09-12T07:05:09.319Z,100.00
2022-09-12T07:06:14.670Z,100.00
2022-09-12T07:07:19.033Z,100.00
2022-09-12T07:08:23.133Z,100.00
2022-09-12T07:09:26.711Z,100.00
2022-09-12T07:10:31.203Z,100.00
2022-09-12T07:11:36.823Z,100.00
2022-09-12T07:12:39.888Z,100.00
2022-09-12T07:13:45.846Z,100.00
2022-09-12T07:14:48.981Z,100.00
2022-09-12T07:15:53.250Z,99.92
2022-09-12T07:16:57.463Z,98.93
2022-09-12T07:18:00.540Z,100.00
2022-09-12T07:19:05.389Z,99.85
2022-09-12T07:20:09.335Z,98.26
2022-09-12T07:21:14.774Z,97.23
2022-09-12T07:22:19.385Z,97.61
2022-09-12T07:23:23.771Z,98.58
2022-09-12T07:24:27.035Z,98.73
2022-09-12T07:25:31.110Z,97.81
2022-09-12T07:26:34.232Z,96.23
2022-09-12T07:27:39.080Z,95.42
2022-09-12T07:28:42.839Z,94.47
2022-09-12T07:29:47.684Z,94.20
2022-09-12T07:30:50.905Z,94.68
2022-09-12T07:31:55.405Z,94.63
2022-09-12T07:32:58.481Z,93.95
2022-09-12T07:34:07.006Z,93.95
2022-09-12T07:35:21.806Z,94.05
2022-09-12T07:36:28.111Z,93.98
2022-09-12T07:37:32.625Z,94.72
2022-09-12T07:38:36.938Z,94.52
2022-09-12T07:39:40.882Z,94.06
2022-09-12T07:40:44.374Z,94.35
2022-09-12T07:41:48.409Z,93.61
2022-09-12T07:42:51.492Z,92.68
2022-09-12T07:43:56.842Z,92.38
2022-09-12T07:45:00.144Z,92.70
2022-09-12T07:46:04.344Z,94.57
2022-09-12T07:47:07.535Z,94.91
2022-09-12T07:48:11.573Z,94.16
2022-09-12T07:49:15.613Z,96.47
2022-09-12T07:50:18.719Z,96.07
2022-09-12T07:51:23.609Z,94.60
2022-09-12T07:52:28.023Z,90.09
2022-09-12T07:53:36.268Z,89.17
2022-09-12T07:54:39.292Z,88.04
2022-09-12T07:55:43.354Z,88.72
2022-09-12T07:56:47.379Z,90.79
2022-09-12T07:57:51.484Z,94.21
2022-09-12T07:58:55.632Z,95.42
2022-09-12T07:59:59.732Z,90.84
2022-09-12T08:01:03.840Z,89.77
2022-09-12T08:02:08.420Z,89.41
2022-09-12T08:03:11.493Z,87.30
2022-09-12T08:04:16.078Z,87.80
2022-09-12T08:05:19.115Z,86.39
2022-09-12T08:06:24.638Z,87.02
2022-09-12T08:07:27.738Z,87.87
2022-09-12T08:08:31.875Z,84.99
2022-09-12T08:09:36.469Z,83.75
2022-09-12T08:10:40.621Z,85.82
2022-09-12T08:11:44.059Z,87.44
2022-09-12T08:12:48.028Z,83.66
2022-09-12T08:13:55.409Z,81.81
2022-09-12T08:14:59.980Z,80.88
2022-09-12T08:16:06.088Z,80.50
2022-09-12T08:17:10.164Z,80.60
2022-09-12T08:18:13.124Z,81.08
2022-09-12T08:19:17.089Z,81.77
2022-09-12T08:20:22.577Z,82.11
2022-09-12T08:21:31.334Z,82.46
2022-09-12T08:22:34.353Z,82.11
2022-09-12T08:23:38.340Z,82.35
2022-09-12T08:24:44.007Z,81.89
2022-09-12T08:25:47.172Z,82.16
2022-09-12T08:26:51.558Z,82.97
2022-09-12T08:27:56.162Z,83.75
2022-09-12T08:29:00.660Z,86.52
2022-09-12T08:30:05.550Z,88.11
2022-09-12T08:31:10.601Z,89.17
2022-09-12T08:32:14.910Z,90.90
2022-09-12T08:33:17.920Z,91.53
2022-09-12T08:34:21.956Z,91.88
2022-09-12T08:35:24.956Z,90.78
2022-09-12T08:36:30.064Z,87.37
2022-09-12T08:37:34.068Z,86.72
2022-09-12T08:38:37.921Z,85.89
2022-09-12T08:39:44.133Z,85.06
2022-09-12T08:40:53.318Z,89.01
2022-09-12T08:42:01.922Z,88.03
2022-09-12T08:43:14.541Z,85.33
2022-09-12T08:44:28.970Z,84.21
2022-09-12T08:45:35.903Z,87.23
2022-09-12T08:46:47.181Z,88.01
2022-09-12T08:47:51.431Z,87.85
2022-09-12T08:48:56.395Z,83.11
2022-09-12T08:50:17.986Z,80.66
2022-09-12T08:51:24.355Z,77.69
2022-09-12T08:52:32.347Z,80.32
2022-09-12T08:53:37.430Z,81.54
2022-09-12T08:54:41.592Z,79.86
2022-09-12T08:55:48.848Z,78.20
2022-09-12T08:56:51.801Z,79.37
2022-09-12T08:57:56.085Z,82.53
2022-09-12T08:59:00.517Z,82.90
2022-09-12T09:00:06.210Z,83.49
2022-09-12T09:01:15.695Z,81.28
2022-09-12T09:03:01.937Z,82.74
2022-09-12T09:04:29.741Z,83.87
2022-09-12T09:05:46.031Z,82.56
2022-09-12T09:07:06.417Z,81.42
2022-09-12T09:08:21.331Z,80.70
2022-09-12T09:09:31.872Z,80.96
2022-09-12T09:10:40.391Z,80.33
2022-09-12T09:11:56.630Z,80.29
2022-09-12T09:13:03.887Z,78.67
2022-09-12T09:14:38.204Z,82.38
2022-09-12T09:15:49.697Z,78.39
2022-09-12T09:16:53.830Z,77.91
2022-09-12T09:18:02.202Z,76.48
2022-09-12T09:19:08.741Z,74.61
2022-09-12T09:20:30.998Z,74.91
2022-09-12T09:21:38.064Z,74.24
2022-09-12T09:22:44.762Z,74.25
2022-09-12T09:23:50.744Z,75.48
2022-09-12T09:24:59.798Z,73.94
2022-09-12T09:26:08.532Z,75.64
2022-09-12T09:27:30.243Z,77.29
2022-09-12T09:28:43.807Z,76.40
2022-09-12T09:29:49.618Z,77.48
2022-09-12T09:30:54.159Z,78.82
2022-09-12T09:31:59.329Z,82.30
2022-09-12T09:33:06.171Z,78.80
2022-09-12T09:34:15.100Z,79.58
2022-09-12T09:35:24.187Z,76.93
2022-09-12T09:36:35.560Z,75.18
2022-09-12T09:37:44.099Z,73.90
2022-09-12T09:38:50.871Z,72.74
2022-09-12T09:40:02.945Z,74.84
2022-09-12T09:41:16.840Z,77.19
2022-09-12T09:42:30.607Z,80.21
2022-09-12T09:43:33.762Z,75.58
2022-09-12T09:44:38.175Z,76.33
2022-09-12T09:45:45.772Z,74.57
2022-09-12T09:46:56.285Z,73.62
2022-09-12T09:48:05.023Z,71.95
2022-09-12T09:49:11.773Z,70.59
2022-09-12T09:50:17.261Z,72.65
2022-09-12T09:51:27.252Z,73.42
2022-09-12T09:52:33.124Z,75.32
2022-09-12T09:53:40.686Z,71.99
2022-09-12T09:54:49.690Z,70.27
2022-09-12T09:55:53.811Z,69.35
2022-09-12T09:56:58.022Z,70.17
2022-09-12T09:58:03.382Z,68.11
2022-09-12T09:59:13.050Z,69.61
2022-09-12T10:00:30.747Z,72.75
2022-09-12T10:01:35.751Z,69.82
2022-09-12T10:02:38.729Z,70.52
2022-09-12T10:03:50.271Z,73.09
2022-09-12T10:04:57.832Z,71.54
2022-09-12T10:06:03.764Z,67.02
2022-09-12T10:07:07.981Z,67.63
2022-09-12T10:08:11.010Z,68.35
2022-09-12T10:09:41.801Z,82.83
2022-09-12T10:10:54.596Z,77.37
2022-09-12T10:11:59.000Z,74.72
2022-09-12T10:13:25.012Z,83.88
2022-09-12T10:14:37.949Z,74.32
2022-09-12T10:15:57.328Z,76.89
2022-09-12T10:17:01.691Z,67.28
2022-09-12T10:18:04.919Z,66.52
2022-09-12T10:19:22.801Z,72.67
2022-09-12T10:20:34.282Z,71.74
2022-09-12T10:21:41.571Z,70.30
2022-09-12T10:22:48.534Z,69.18
2022-09-12T10:24:00.157Z,67.39
2022-09-12T10:25:04.589Z,69.15
2022-09-12T10:26:10.733Z,68.30
2022-09-12T10:27:19.064Z,69.39
2022-09-12T10:28:27.315Z,71.07
2022-09-12T10:29:33.372Z,72.83
2022-09-12T10:30:37.888Z,68.39
2022-09-12T10:31:48.074Z,72.03
2022-09-12T10:32:52.739Z,69.97
2022-09-12T10:33:56.749Z,70.33
2022-09-12T10:35:02.748Z,70.18
2022-09-12T10:36:06.031Z,69.32
2022-09-12T10:37:11.563Z,66.68
2022-09-12T10:38:18.756Z,68.30
2022-09-12T10:39:23.180Z,68.91
2022-09-12T10:40:29.452Z,67.88
2022-09-12T10:41:37.625Z,69.52
2022-09-12T10:42:48.239Z,69.51
2022-09-12T10:43:52.669Z,68.78
2022-09-12T10:44:56.715Z,67.77
2022-09-12T10:46:02.272Z,65.91
2022-09-12T10:47:22.768Z,66.38
2022-09-12T10:48:29.305Z,66.27
2022-09-12T10:49:38.276Z,66.27
2022-09-12T10:50:42.470Z,65.58
2022-09-12T10:51:46.554Z,67.09
2022-09-12T10:52:49.613Z,65.69
2022-09-12T10:53:56.601Z,64.92
2022-09-12T10:55:01.648Z,66.38
2022-09-12T10:56:09.641Z,64.98
2022-09-12T10:57:36.562Z,73.11
2022-09-12T10:59:00.686Z,69.70
2022-09-12T11:00:11.184Z,63.08
2022-09-12T11:01:21.427Z,61.62
2022-09-12T11:02:28.785Z,63.76
2022-09-12T11:03:45.467Z,67.31
2022-09-12T11:04:55.230Z,64.22
2022-09-12T11:06:00.183Z,61.03
2022-09-12T11:07:14.723Z,63.25
2022-09-12T11:08:30.280Z,61.82
2022-09-12T11:09:40.042Z,60.68
2022-09-12T11:10:50.072Z,60.76
2022-09-12T11:12:03.743Z,58.40
2022-09-12T11:13:17.927Z,55.55
2022-09-12T11:14:38.094Z,53.58
2022-09-12T11:16:02.473Z,51.18
2022-09-12T11:17:15.470Z,51.18
2022-09-12T11:18:34.068Z,49.78
2022-09-12T11:19:52.260Z,51.16
2022-09-12T11:21:10.815Z,52.31
2022-09-12T11:22:32.480Z,51.87
2022-09-12T11:23:57.691Z,51.14
2022-09-12T11:25:28.073Z,51.42
2022-09-12T11:26:41.500Z,51.43
2022-09-12T11:27:55.402Z,47.63
2022-09-12T11:29:05.011Z,49.29
2022-09-12T11:30:15.982Z,48.68
2022-09-12T11:31:30.152Z,48.65
2022-09-12T11:32:48.055Z,46.70
2022-09-12T11:33:56.476Z,48.62
2022-09-12T11:35:07.081Z,48.10
2022-09-12T11:36:21.981Z,46.16
2022-09-12T11:37:39.208Z,46.65
2022-09-12T11:39:03.714Z,44.38
2022-09-12T11:40:20.289Z,44.83
2022-09-12T11:41:27.660Z,46.93
2022-09-12T11:42:33.893Z,46.23
2022-09-12T11:43:41.435Z,45.99
2022-09-12T11:44:47.872Z,45.52
2022-09-12T11:45:54.435Z,45.53
2022-09-12T11:46:59.646Z,45.31
2022-09-12T11:48:08.462Z,44.80
2022-09-12T11:49:24.395Z,43.70
2022-09-12T11:50:30.241Z,45.33
2022-09-12T11:51:39.139Z,44.95
2022-09-12T11:52:42.131Z,45.73
2022-09-12T11:53:46.568Z,46.14
2022-09-12T11:54:55.047Z,45.22
2022-09-12T11:56:03.205Z,45.89
2022-09-12T11:57:13.162Z,45.93
2022-09-12T11:58:17.967Z,45.41
2022-09-12T11:59:31.669Z,45.48
2022-09-12T12:00:41.960Z,46.04
2022-09-12T12:01:49.488Z,45.64
2022-09-12T12:02:59.421Z,45.28
2022-09-12T12:04:10.091Z,45.95
2022-09-12T12:05:21.880Z,45.44
2022-09-12T12:06:28.470Z,45.97
2022-09-12T12:07:44.638Z,44.68
2022-09-12T12:08:50.703Z,44.45
2022-09-12T12:09:53.731Z,43.74
2022-09-12T12:10:59.822Z,43.34
2022-09-12T12:12:07.233Z,44.08
2022-09-12T12:13:19.513Z,44.08
2022-09-12T12:14:26.900Z,43.56
2022-09-12T12:15:31.467Z,43.11
2022-09-12T12:16:36.653Z,43.21
2022-09-12T12:17:41.116Z,43.22
2022-09-12T12:18:45.742Z,43.06
2022-09-12T12:20:02.168Z,42.74
2022-09-12T12:21:36.473Z,40.38
2022-09-12T12:22:53.191Z,42.05
2022-09-12T12:24:14.242Z,41.71
2022-09-12T12:25:40.826Z,42.55
2022-09-12T12:26:55.050Z,42.72
2022-09-12T12:28:02.007Z,42.16
2022-09-12T12:29:05.686Z,41.14
2022-09-12T12:31:02.667Z,37.59
2022-09-12T12:32:27.032Z,40.83
2022-09-12T12:34:01.013Z,41.27
2022-09-12T12:35:41.477Z,41.77
2022-09-12T12:36:44.833Z,43.21
2022-09-12T12:37:57.323Z,40.42
2022-09-12T12:39:00.392Z,41.79
2022-09-12T12:40:10.508Z,42.36
2022-09-12T12:41:46.222Z,39.86
2022-09-12T12:43:14.849Z,41.89
2022-09-12T12:44:47.959Z,40.33
2022-09-12T12:46:13.438Z,39.72
2022-09-12T12:47:18.557Z,42.53
2022-09-12T12:48:23.051Z,42.37
2022-09-12T12:49:30.383Z,41.91
2022-09-12T12:50:33.411Z,41.48
2022-09-12T12:51:47.082Z,40.10
2022-09-12T12:52:53.997Z,40.86
2022-09-12T12:53:57.953Z,41.07
2022-09-12T12:55:03.622Z,41.39
2022-09-12T12:56:07.411Z,41.96
2022-09-12T12:57:29.139Z,40.59
2022-09-12T12:58:35.297Z,42.07
2022-09-12T12:59:39.331Z,42.36
2022-09-12T13:00:43.680Z,43.07
2022-09-12T13:01:52.785Z,43.12
2022-09-12T13:03:01.204Z,42.99
2022-09-12T13:04:06.591Z,42.89
2022-09-12T13:05:22.087Z,42.99
2022-09-12T13:06:32.273Z,43.02
2022-09-12T13:07:38.665Z,43.71
2022-09-12T13:08:45.227Z,43.01
2022-09-12T13:09:53.088Z,43.37
2022-09-12T13:10:59.483Z,43.17
2022-09-12T13:12:06.111Z,43.15
2022-09-12T13:13:09.275Z,42.94
2022-09-12T13:14:36.135Z,42.42
2022-09-12T13:15:54.020Z,42.72
2022-09-12T13:16:59.798Z,42.79
2022-09-12T13:18:06.001Z,42.31
2022-09-12T13:19:17.451Z,41.58
2022-09-12T13:20:28.669Z,42.20
2022-09-12T13:21:32.090Z,42.58
2022-09-12T13:22:42.011Z,42.72
2022-09-12T13:23:47.112Z,42.92
2022-09-12T13:24:52.528Z,42.90
2022-09-12T13:25:57.732Z,43.52
2022-09-12T13:27:00.913Z,43.88
2022-09-12T13:28:08.360Z,43.81
2022-09-12T13:29:13.252Z,44.12
2022-09-12T13:30:17.333Z,44.04
2022-09-12T13:31:24.512Z,43.67
2022-09-12T13:32:27.701Z,43.82
2022-09-12T13:33:38.057Z,43.42
2022-09-12T13:34:52.368Z,42.54
2022-09-12T13:36:35.597Z,41.86
2022-09-12T13:37:49.718Z,42.60
2022-09-12T13:39:03.762Z,42.17
2022-09-12T13:40:19.052Z,41.62
2022-09-12T13:41:39.508Z,42.38
2022-09-12T13:42:43.143Z,43.34
2022-09-12T13:43:48.241Z,43.21
2022-09-12T13:44:53.470Z,43.35
2022-09-12T13:45:57.809Z,42.80
2022-09-12T13:47:01.730Z,42.33
2022-09-12T13:48:06.824Z,42.74
2022-09-12T13:49:19.309Z,41.69
2022-09-12T13:50:26.032Z,42.82
2022-09-12T13:51:30.960Z,42.20
2022-09-12T13:52:36.554Z,42.41
2022-09-12T13:53:46.434Z,40.84
2022-09-12T13:54:51.454Z,41.96
2022-09-12T13:55:58.412Z,42.53
2022-09-12T13:57:01.871Z,42.00
2022-09-12T13:58:07.426Z,41.81
2022-09-12T13:59:13.824Z,40.93
2022-09-12T14:00:19.682Z,40.71
2022-09-12T14:01:24.589Z,40.52
2022-09-12T14:02:29.547Z,40.32
2022-09-12T14:03:56.747Z,40.92
2022-09-12T14:05:11.660Z,41.21
2022-09-12T14:06:18.559Z,41.51
2022-09-12T14:07:24.573Z,41.88
2022-09-12T14:08:27.712Z,42.07
2022-09-12T14:09:36.309Z,41.95
2022-09-12T14:10:42.675Z,42.69
2022-09-12T14:11:45.633Z,42.62
2022-09-12T14:12:51.000Z,42.16
2022-09-12T14:13:55.672Z,42.47
2022-09-12T14:15:00.400Z,42.71
2022-09-12T14:16:03.710Z,43.14
2022-09-12T14:17:19.818Z,44.18
2022-09-12T14:18:28.040Z,44.40
2022-09-12T14:19:32.495Z,44.26
2022-09-12T14:20:39.980Z,44.44
2022-09-12T14:21:43.235Z,44.71
2022-09-12T14:22:51.077Z,44.95